createdAt,value
2019-03-13T00:00:05.000Z,26.7
2019-03-13T00:01:05.000Z,26.7
2019-03-13T00:02:05.000Z,26.7
2019-03-13T00:04:05.000Z,26.7
2019-03-13T00:05:51.000Z,26.8
2019-03-13T00:07:06.000Z,26.7
2019-03-13T00:08:06.000Z,26.8
2019-03-13T00:10:06.000Z,26.8
2019-03-13T00:12:06.000Z,26.7
2019-03-13T00:14:06.000Z,26.7
2019-03-13T00:16:06.000Z,26.7
2019-03-13T00:17:06.000Z,26.7
2019-03-13T00:19:06.000Z,26.8
2019-03-13T00:20:06.000Z,26.8
2019-03-13T00:22:06.000Z,26.9
2019-03-13T00:23:06.000Z,26.9
2019-03-13T00:25:06.000Z,26.9
2019-03-13T00:26:06.000Z,26.8
2019-03-13T00:28:06.000Z,26.9
2019-03-13T00:29:06.000Z,26.9
2019-03-13T00:30:06.000Z,26.9
2019-03-13T00:32:06.000Z,26.8
2019-03-13T00:33:06.000Z,26.8
2019-03-13T00:34:06.000Z,26.8
2019-03-13T00:36:06.000Z,26.8
2019-03-13T00:37:06.000Z,26.8
2019-03-13T00:38:06.000Z,26.8
2019-03-13T00:39:06.000Z,26.8
2019-03-13T00:41:06.000Z,26.9
2019-03-13T00:42:06.000Z,26.9
2019-03-13T00:43:51.000Z,26.9
2019-03-13T00:45:06.000Z,26.9
2019-03-13T00:46:06.000Z,26.8
2019-03-13T00:47:06.000Z,26.9
2019-03-13T00:49:06.000Z,26.9
2019-03-13T00:50:06.000Z,27
2019-03-13T00:52:06.000Z,27
2019-03-13T00:54:06.000Z,27
2019-03-13T00:56:06.000Z,26.8
2019-03-13T00:57:06.000Z,26.8
2019-03-13T00:58:06.000Z,26.8
2019-03-13T01:00:06.000Z,26.8
2019-03-13T01:01:06.000Z,26.8
2019-03-13T01:03:06.000Z,26.8
2019-03-13T01:04:06.000Z,26.8
2019-03-13T01:06:06.000Z,26.8
2019-03-13T01:08:06.000Z,26.8
2019-03-13T01:10:06.000Z,26.8
2019-03-13T01:12:06.000Z,26.8
2019-03-13T01:13:06.000Z,26.8
2019-03-13T01:14:06.000Z,26.9
2019-03-13T01:15:51.000Z,27
2019-03-13T01:17:06.000Z,26.9
2019-03-13T01:18:06.000Z,26.9
2019-03-13T01:19:06.000Z,27
2019-03-13T01:20:06.000Z,27
2019-03-13T01:22:06.000Z,27
2019-03-13T01:23:06.000Z,27
2019-03-13T01:25:06.000Z,27
2019-03-13T01:27:06.000Z,27
2019-03-13T01:29:06.000Z,26.9
2019-03-13T01:31:06.000Z,26.9
2019-03-13T01:33:06.000Z,26.8
2019-03-13T01:35:06.000Z,26.6
2019-03-13T01:36:06.000Z,26.6
2019-03-13T01:38:06.000Z,26.7
2019-03-13T01:40:06.000Z,26.7
2019-03-13T01:41:06.000Z,26.7
2019-03-13T01:43:06.000Z,26.7
2019-03-13T01:44:06.000Z,26.8
2019-03-13T01:46:06.000Z,26.7
2019-03-13T01:47:51.000Z,26.7
2019-03-13T01:49:06.000Z,26.7
2019-03-13T01:50:51.000Z,26.7
2019-03-13T01:52:06.000Z,26.7
2019-03-13T01:53:06.000Z,26.7
2019-03-13T01:54:06.000Z,26.7
2019-03-13T01:55:06.000Z,26.8
2019-03-13T01:57:06.000Z,26.9
2019-03-13T01:58:06.000Z,26.9
2019-03-13T02:00:06.000Z,26.9
2019-03-13T02:01:06.000Z,26.9
2019-03-13T02:02:06.000Z,27
2019-03-13T02:03:06.000Z,27
2019-03-13T02:04:06.000Z,27
2019-03-13T02:05:06.000Z,27.1
2019-03-13T02:06:06.000Z,27.1
2019-03-13T02:08:06.000Z,27.1
2019-03-13T02:09:06.000Z,27
2019-03-13T02:11:06.000Z,27
2019-03-13T02:12:50.000Z,26.9
2019-03-13T02:14:06.000Z,26.8
2019-03-13T02:15:06.000Z,26.8
2019-03-13T02:16:50.000Z,26.9
2019-03-13T02:18:06.000Z,26.8
2019-03-13T02:20:06.000Z,26.8
2019-03-13T02:21:06.000Z,26.8
2019-03-13T02:22:06.000Z,26.8
2019-03-13T02:24:06.000Z,26.8
2019-03-13T02:26:06.000Z,26.8
2019-03-13T02:27:06.000Z,26.7
2019-03-13T02:28:06.000Z,26.8
2019-03-13T02:29:50.000Z,26.9
2019-03-13T02:31:06.000Z,26.8
2019-03-13T02:32:06.000Z,26.8
2019-03-13T02:33:06.000Z,26.9
2019-03-13T02:34:06.000Z,26.9
2019-03-13T02:36:06.000Z,26.9
2019-03-13T02:38:06.000Z,26.9
2019-03-13T02:40:06.000Z,26.8
2019-03-13T02:42:06.000Z,26.8
2019-03-13T02:44:06.000Z,26.8
2019-03-13T02:45:51.000Z,26.7
2019-03-13T02:47:06.000Z,26.7
2019-03-13T02:49:06.000Z,26.6
2019-03-13T02:50:06.000Z,26.5
2019-03-13T02:52:06.000Z,26.6
2019-03-13T02:54:06.000Z,26.6
2019-03-13T02:56:06.000Z,26.6
2019-03-13T02:58:06.000Z,26.6
2019-03-13T03:00:06.000Z,26.6
2019-03-13T03:02:06.000Z,26.5
2019-03-13T03:04:06.000Z,26.5
2019-03-13T03:05:06.000Z,26.6
2019-03-13T03:06:50.000Z,26.7
2019-03-13T03:08:06.000Z,26.6
2019-03-13T03:10:06.000Z,26.6
2019-03-13T03:12:06.000Z,26.6
2019-03-13T03:14:06.000Z,26.6
2019-03-13T03:16:06.000Z,26.5
2019-03-13T03:17:50.000Z,26.5
2019-03-13T03:19:05.000Z,26.5
2019-03-13T03:21:05.000Z,26.5
2019-03-13T03:23:05.000Z,26.5
2019-03-13T03:25:05.000Z,26.4
2019-03-13T03:26:05.000Z,26.4
2019-03-13T03:28:05.000Z,26.5
2019-03-13T03:29:05.000Z,26.6
2019-03-13T03:31:05.000Z,26.6
2019-03-13T03:32:50.000Z,26.7
2019-03-13T03:34:05.000Z,26.6
2019-03-13T03:36:05.000Z,26.6
2019-03-13T03:38:05.000Z,26.5
2019-03-13T03:39:05.000Z,26.5
2019-03-13T03:41:05.000Z,26.5
2019-03-13T03:43:05.000Z,26.5
2019-03-13T03:45:05.000Z,26.4
2019-03-13T03:47:05.000Z,26.4
2019-03-13T03:49:05.000Z,26.5
2019-03-13T03:51:05.000Z,26.4
2019-03-13T03:53:05.000Z,26.4
2019-03-13T03:54:05.000Z,26.4
2019-03-13T03:56:05.000Z,26.5
2019-03-13T03:57:05.000Z,26.6
2019-03-13T03:58:05.000Z,26.6
2019-03-13T04:00:05.000Z,26.7
2019-03-13T04:01:50.000Z,26.7
2019-03-13T04:03:05.000Z,26.7
2019-03-13T04:05:05.000Z,26.6
2019-03-13T04:06:05.000Z,26.6
2019-03-13T04:08:05.000Z,26.6
2019-03-13T04:09:05.000Z,26.7
2019-03-13T04:10:05.000Z,26.7
2019-03-13T04:12:05.000Z,26.7
2019-03-13T04:13:05.000Z,26.7
2019-03-13T04:15:05.000Z,26.7
2019-03-13T04:16:05.000Z,26.7
2019-03-13T04:17:05.000Z,26.8
2019-03-13T04:19:05.000Z,26.7
2019-03-13T04:20:06.000Z,26.7
2019-03-13T04:21:06.000Z,26.8
2019-03-13T04:22:06.000Z,26.8
2019-03-13T04:23:50.000Z,26.9
2019-03-13T04:24:51.000Z,26.8
2019-03-13T04:26:06.000Z,26.8
2019-03-13T04:28:06.000Z,26.7
2019-03-13T04:29:06.000Z,26.7
2019-03-13T04:31:06.000Z,26.8
2019-03-13T04:32:51.000Z,26.8
2019-03-13T04:35:06.000Z,26.6
2019-03-13T04:36:06.000Z,26.6
2019-03-13T04:38:06.000Z,26.6
2019-03-13T04:40:06.000Z,26.6
2019-03-13T04:41:06.000Z,26.6
2019-03-13T04:43:06.000Z,26.6
2019-03-13T04:44:06.000Z,26.7
2019-03-13T04:45:06.000Z,26.8
2019-03-13T04:46:06.000Z,26.8
2019-03-13T04:48:06.000Z,26.9
2019-03-13T04:50:06.000Z,26.8
2019-03-13T04:52:06.000Z,26.7
2019-03-13T04:54:06.000Z,26.7
2019-03-13T04:55:06.000Z,26.7
2019-03-13T04:57:06.000Z,26.7
2019-03-13T04:58:06.000Z,26.7
2019-03-13T05:00:06.000Z,26.7
2019-03-13T05:02:06.000Z,26.6
2019-03-13T05:04:06.000Z,26.6
2019-03-13T05:06:06.000Z,26.6
2019-03-13T05:07:06.000Z,26.6
2019-03-13T05:08:50.000Z,26.5
2019-03-13T05:10:06.000Z,26.5
2019-03-13T05:11:50.000Z,26.5
2019-03-13T05:13:06.000Z,26.5
2019-03-13T05:15:06.000Z,26.4
2019-03-13T05:16:06.000Z,26.4
2019-03-13T05:17:06.000Z,26.4
2019-03-13T05:19:06.000Z,26.5
2019-03-13T05:20:06.000Z,26.6
2019-03-13T05:21:50.000Z,26.7
2019-03-13T05:23:06.000Z,26.6
2019-03-13T05:24:06.000Z,26.7
2019-03-13T05:26:06.000Z,26.7
2019-03-13T05:28:06.000Z,26.7
2019-03-13T05:29:06.000Z,26.6
2019-03-13T05:30:06.000Z,26.6
2019-03-13T05:32:06.000Z,26.6
2019-03-13T05:33:06.000Z,26.6
2019-03-13T05:35:06.000Z,26.6
2019-03-13T05:37:06.000Z,26.6
2019-03-13T05:39:06.000Z,26.6
2019-03-13T05:41:06.000Z,26.6
2019-03-13T05:43:06.000Z,26.5
2019-03-13T05:44:06.000Z,26.5
2019-03-13T05:45:06.000Z,26.5
2019-03-13T05:46:51.000Z,26.6
2019-03-13T05:48:06.000Z,26.6
2019-03-13T05:49:06.000Z,26.6
2019-03-13T05:51:06.000Z,26.7
2019-03-13T05:53:06.000Z,26.8
2019-03-13T05:54:06.000Z,26.8
2019-03-13T05:56:06.000Z,26.8
2019-03-13T05:57:06.000Z,26.8
2019-03-13T05:59:06.000Z,26.9
2019-03-13T06:00:06.000Z,26.9
2019-03-13T06:01:06.000Z,27
2019-03-13T06:03:06.000Z,27.1
2019-03-13T06:05:06.000Z,27.1
2019-03-13T06:06:51.000Z,27.1
2019-03-13T06:08:06.000Z,27.1
2019-03-13T06:09:06.000Z,27.1
2019-03-13T06:11:06.000Z,27.1
2019-03-13T06:12:06.000Z,27.1
2019-03-13T06:14:06.000Z,27.2
2019-03-13T06:16:06.000Z,27.2
2019-03-13T06:17:51.000Z,27.3
2019-03-13T06:18:52.000Z,27.2
2019-03-13T06:20:06.000Z,27.2
2019-03-13T06:22:06.000Z,27.1
2019-03-13T06:24:06.000Z,27.2
2019-03-13T06:25:06.000Z,27.2
2019-03-13T06:27:06.000Z,27.4
2019-03-13T06:29:06.000Z,27.4
2019-03-13T06:31:06.000Z,27.5
2019-03-13T06:32:06.000Z,27.5
2019-03-13T06:33:06.000Z,27.6
2019-03-13T06:35:06.000Z,27.6
2019-03-13T06:37:06.000Z,27.6
2019-03-13T06:39:06.000Z,27.5
2019-03-13T06:40:06.000Z,27.6
2019-03-13T06:42:06.000Z,27.6
2019-03-13T06:43:06.000Z,27.7
2019-03-13T06:45:06.000Z,27.8
2019-03-13T06:47:06.000Z,27.8
2019-03-13T06:49:06.000Z,27.7
2019-03-13T06:51:06.000Z,27.7
2019-03-13T06:53:06.000Z,27.5
2019-03-13T06:55:06.000Z,27.5
2019-03-13T06:56:06.000Z,27.5
2019-03-13T06:57:06.000Z,27.6
2019-03-13T06:59:06.000Z,27.7
2019-03-13T07:00:06.000Z,27.7
2019-03-13T07:01:06.000Z,27.8
2019-03-13T07:02:06.000Z,27.8
2019-03-13T07:04:06.000Z,27.8
2019-03-13T07:05:06.000Z,27.8
2019-03-13T07:06:06.000Z,27.9
2019-03-13T07:07:51.000Z,28
2019-03-13T07:09:06.000Z,27.9
2019-03-13T07:13:07.000Z,27.4
2019-03-13T07:15:07.000Z,27.5
2019-03-13T07:17:07.000Z,27.5
2019-03-13T07:19:07.000Z,27.6
2019-03-13T07:21:07.000Z,27.6
2019-03-13T07:23:07.000Z,27.6
2019-03-13T07:25:07.000Z,27.7
2019-03-13T07:26:07.000Z,27.7
2019-03-13T07:28:07.000Z,27.9
2019-03-13T07:30:07.000Z,28
2019-03-13T07:32:07.000Z,28
2019-03-13T07:34:07.000Z,28
2019-03-13T07:36:07.000Z,28
2019-03-13T07:37:52.000Z,28
2019-03-13T07:39:07.000Z,27.9
2019-03-13T07:40:52.000Z,28
2019-03-13T07:42:07.000Z,28
2019-03-13T07:43:52.000Z,28.1
2019-03-13T07:46:07.000Z,27.9
2019-03-13T07:47:07.000Z,27.9
2019-03-13T07:49:07.000Z,27.8
2019-03-13T07:50:07.000Z,27.9
2019-03-13T07:51:07.000Z,28
2019-03-13T07:52:07.000Z,28
2019-03-13T07:54:07.000Z,28.2
2019-03-13T07:56:07.000Z,28.3
2019-03-13T07:58:07.000Z,28.3
2019-03-13T08:00:07.000Z,28.3
2019-03-13T08:02:07.000Z,28.4
2019-03-13T08:04:07.000Z,28.4
2019-03-13T08:05:52.000Z,28.4
2019-03-13T08:07:07.000Z,28.4
2019-03-13T08:08:07.000Z,28.5
2019-03-13T08:09:07.000Z,28.5
2019-03-13T08:11:07.000Z,28.6
2019-03-13T08:12:07.000Z,28.6
2019-03-13T08:14:07.000Z,28.6
2019-03-13T08:15:07.000Z,28.6
2019-03-13T08:17:07.000Z,28.7
2019-03-13T08:18:07.000Z,28.8
2019-03-13T08:20:07.000Z,28.9
2019-03-13T08:21:07.000Z,28.9
2019-03-13T08:22:07.000Z,29
2019-03-13T08:24:07.000Z,29
2019-03-13T08:26:07.000Z,28.9
2019-03-13T08:27:07.000Z,28.9
2019-03-13T08:28:07.000Z,28.9
2019-03-13T08:29:07.000Z,28.9
2019-03-13T08:31:07.000Z,28.9
2019-03-13T08:32:07.000Z,28.9
2019-03-13T08:33:07.000Z,29
2019-03-13T08:35:07.000Z,29
2019-03-13T08:37:07.000Z,29
2019-03-13T08:39:07.000Z,29
2019-03-13T08:40:07.000Z,29
2019-03-13T08:42:07.000Z,29
2019-03-13T08:43:07.000Z,29
2019-03-13T08:44:52.000Z,29
2019-03-13T08:46:07.000Z,29
2019-03-13T08:47:52.000Z,29
2019-03-13T08:49:07.000Z,29.1
2019-03-13T08:50:52.000Z,29.1
2019-03-13T08:52:07.000Z,29.1
2019-03-13T08:53:07.000Z,29.1
2019-03-13T08:54:52.000Z,29.2
2019-03-13T08:56:07.000Z,29.1
2019-03-13T08:57:07.000Z,29.2
2019-03-13T08:59:07.000Z,29.2
2019-03-13T09:00:52.000Z,29.2
2019-03-13T09:02:07.000Z,29.2
2019-03-13T09:03:07.000Z,29.2
2019-03-13T09:04:07.000Z,29.3
2019-03-13T09:05:07.000Z,29.4
2019-03-13T09:07:07.000Z,29.5
2019-03-13T09:09:07.000Z,29.5
2019-03-13T09:10:07.000Z,29.5
2019-03-13T09:11:07.000Z,29.5
2019-03-13T09:12:07.000Z,29.5
2019-03-13T09:14:07.000Z,29.5
2019-03-13T09:16:07.000Z,29.4
2019-03-13T09:17:07.000Z,29.4
2019-03-13T09:19:07.000Z,29.4
2019-03-13T09:21:07.000Z,29.3
2019-03-13T09:22:07.000Z,29.3
2019-03-13T09:23:07.000Z,29.4
2019-03-13T09:24:52.000Z,29.5
2019-03-13T09:26:07.000Z,29.5
2019-03-13T09:28:07.000Z,29.4
2019-03-13T09:29:07.000Z,29.4
2019-03-13T09:31:07.000Z,29.3
2019-03-13T09:32:07.000Z,29.3
2019-03-13T09:33:07.000Z,29.3
2019-03-13T09:34:07.000Z,29.3
2019-03-13T09:36:07.000Z,29.4
2019-03-13T09:37:52.000Z,29.4
2019-03-13T09:39:07.000Z,29.4
2019-03-13T09:41:07.000Z,29.3
2019-03-13T09:43:07.000Z,29.3
2019-03-13T09:45:07.000Z,29.2
2019-03-13T09:46:07.000Z,29.2
2019-03-13T09:48:07.000Z,29.3
2019-03-13T09:49:07.000Z,29.3
2019-03-13T09:50:07.000Z,29.4
2019-03-13T09:52:07.000Z,29.5
2019-03-13T09:54:07.000Z,29.5
2019-03-13T09:55:07.000Z,29.5
2019-03-13T09:56:07.000Z,29.6
2019-03-13T09:58:07.000Z,29.6
2019-03-13T10:00:07.000Z,29.5
2019-03-13T10:02:07.000Z,29.5
2019-03-13T10:03:08.000Z,29.4
2019-03-13T10:05:07.000Z,29.5
2019-03-13T10:06:07.000Z,29.5
2019-03-13T10:08:07.000Z,29.5
2019-03-13T10:09:07.000Z,29.6
2019-03-13T10:11:07.000Z,29.5
2019-03-13T10:12:07.000Z,29.5
2019-03-13T10:14:07.000Z,29.5
2019-03-13T10:16:07.000Z,29.4
2019-03-13T10:18:07.000Z,29.4
2019-03-13T10:20:07.000Z,29.4
2019-03-13T10:21:07.000Z,29.4
2019-03-13T10:22:52.000Z,29.4
2019-03-13T10:24:07.000Z,29.4
2019-03-13T10:26:07.000Z,29.4
2019-03-13T10:28:07.000Z,29.4
2019-03-13T10:29:52.000Z,29.5
2019-03-13T10:31:07.000Z,29.5
2019-03-13T10:33:07.000Z,29.6
2019-03-13T10:34:07.000Z,29.6
2019-03-13T10:36:07.000Z,29.7
2019-03-13T10:37:07.000Z,29.8
2019-03-13T10:39:07.000Z,29.9
2019-03-13T10:41:07.000Z,30
2019-03-13T10:43:07.000Z,30
2019-03-13T10:44:07.000Z,30.1
2019-03-13T10:46:07.000Z,30.2
2019-03-13T10:48:07.000Z,30.2
2019-03-13T10:50:07.000Z,30.1
2019-03-13T10:51:07.000Z,30
2019-03-13T10:52:07.000Z,30.1
2019-03-13T10:54:07.000Z,30.1
2019-03-13T10:55:07.000Z,30.1
2019-03-13T10:56:52.000Z,30.1
2019-03-13T10:58:07.000Z,30
2019-03-13T11:00:07.000Z,30
2019-03-13T11:02:07.000Z,30
2019-03-13T11:04:07.000Z,30
2019-03-13T11:06:07.000Z,30
2019-03-13T11:08:07.000Z,30
2019-03-13T11:09:07.000Z,29.9
2019-03-13T11:11:07.000Z,29.9
2019-03-13T11:12:07.000Z,30
2019-03-13T11:13:07.000Z,30
2019-03-13T11:14:07.000Z,30.1
2019-03-13T11:16:07.000Z,30.1
2019-03-13T11:17:07.000Z,30.1
2019-03-13T11:19:07.000Z,30.1
2019-03-13T11:20:07.000Z,30.2
2019-03-13T11:22:07.000Z,30.4
2019-03-13T11:24:07.000Z,30.4
2019-03-13T11:26:07.000Z,30.3
2019-03-13T11:27:52.000Z,30.2
2019-03-13T11:29:07.000Z,30.1
2019-03-13T11:30:07.000Z,30.1
2019-03-13T11:32:07.000Z,30
2019-03-13T11:33:07.000Z,30
2019-03-13T11:35:07.000Z,30
2019-03-13T11:36:07.000Z,30
2019-03-13T11:38:07.000Z,30
2019-03-13T11:40:07.000Z,30
2019-03-13T11:41:07.000Z,29.9
2019-03-13T11:43:07.000Z,29.9
2019-03-13T11:45:07.000Z,29.9
2019-03-13T11:46:07.000Z,29.9
2019-03-13T11:47:07.000Z,29.9
2019-03-13T11:49:07.000Z,29.9
2019-03-13T11:51:07.000Z,29.9
2019-03-13T11:53:07.000Z,29.8
2019-03-13T11:55:07.000Z,29.8
2019-03-13T11:57:07.000Z,29.9
2019-03-13T11:59:07.000Z,29.8
2019-03-13T12:00:07.000Z,29.9
2019-03-13T12:01:07.000Z,29.9
2019-03-13T12:03:07.000Z,29.9
2019-03-13T12:05:07.000Z,29.9
2019-03-13T12:06:07.000Z,29.9
2019-03-13T12:07:07.000Z,30
2019-03-13T12:08:07.000Z,30
2019-03-13T12:10:07.000Z,30
2019-03-13T12:11:07.000Z,30
2019-03-13T12:12:52.000Z,30
2019-03-13T12:14:07.000Z,29.9
2019-03-13T12:15:07.000Z,29.9
2019-03-13T12:16:07.000Z,30
2019-03-13T12:18:07.000Z,30.1
2019-03-13T12:19:07.000Z,30.1
2019-03-13T12:20:07.000Z,30.2
2019-03-13T12:21:07.000Z,30.2
2019-03-13T12:23:07.000Z,30.2
2019-03-13T12:24:52.000Z,30.2
2019-03-13T12:26:07.000Z,30.1
2019-03-13T12:28:07.000Z,30.1
2019-03-13T12:29:52.000Z,30.1
2019-03-13T12:31:07.000Z,30.1
2019-03-13T12:33:07.000Z,30.1
2019-03-13T12:35:07.000Z,30.2
2019-03-13T12:37:07.000Z,30.2
2019-03-13T12:38:07.000Z,30.2
2019-03-13T12:39:07.000Z,30
2019-03-13T12:41:07.000Z,29.2
2019-03-13T12:42:07.000Z,28.7
2019-03-13T12:44:07.000Z,27.9
2019-03-13T12:46:07.000Z,27.2
2019-03-13T12:48:07.000Z,26.5
2019-03-13T12:50:07.000Z,25.9
2019-03-13T12:51:07.000Z,25.8
2019-03-13T12:53:07.000Z,26
2019-03-13T12:54:07.000Z,26.2
2019-03-13T12:56:07.000Z,26.6
2019-03-13T12:57:52.000Z,26.9
2019-03-13T12:59:07.000Z,27
2019-03-13T13:01:07.000Z,27.2
2019-03-13T13:02:52.000Z,27.5
2019-03-13T13:04:07.000Z,27.5
2019-03-13T13:05:07.000Z,27.6
2019-03-13T13:07:07.000Z,27.8
2019-03-13T13:09:07.000Z,28
2019-03-13T13:11:07.000Z,28
2019-03-13T13:13:07.000Z,28.1
2019-03-13T13:15:07.000Z,28.2
2019-03-13T13:16:07.000Z,28.3
2019-03-13T13:17:07.000Z,28.4
2019-03-13T13:19:07.000Z,28.5
2019-03-13T13:21:07.000Z,28.6
2019-03-13T13:23:07.000Z,28.7
2019-03-13T13:25:07.000Z,28.6
2019-03-13T13:26:07.000Z,28.7
2019-03-13T13:27:52.000Z,28.8
2019-03-13T13:29:07.000Z,28.8
2019-03-13T13:30:07.000Z,28.8
2019-03-13T13:31:07.000Z,28.9
2019-03-13T13:33:07.000Z,28.9
2019-03-13T13:34:07.000Z,28.9
2019-03-13T13:36:07.000Z,28.9
2019-03-13T13:38:07.000Z,28.9
2019-03-13T13:39:52.000Z,28.9
2019-03-13T13:41:07.000Z,28.8
2019-03-13T13:42:07.000Z,28.9
2019-03-13T13:43:07.000Z,28.9
2019-03-13T13:44:52.000Z,29
2019-03-13T13:46:07.000Z,29
2019-03-13T13:48:07.000Z,29.1
2019-03-13T13:49:07.000Z,29.1
2019-03-13T13:51:07.000Z,29.1
2019-03-13T13:53:07.000Z,29
2019-03-13T13:55:07.000Z,28.9
2019-03-13T13:56:07.000Z,28.9
2019-03-13T13:58:07.000Z,29
2019-03-13T13:59:52.000Z,29.1
2019-03-13T14:01:07.000Z,29.1
2019-03-13T14:03:07.000Z,29.1
2019-03-13T14:04:07.000Z,29
2019-03-13T14:05:07.000Z,29.1
2019-03-13T14:06:07.000Z,29.1
2019-03-13T14:07:52.000Z,29.2
2019-03-13T14:09:07.000Z,29.2
2019-03-13T14:10:07.000Z,29.2
2019-03-13T14:12:07.000Z,29.3
2019-03-13T14:13:07.000Z,29.3
2019-03-13T14:14:07.000Z,29.3
2019-03-13T14:15:52.000Z,29.4
2019-03-13T14:17:07.000Z,29.2
2019-03-13T14:19:07.000Z,29
2019-03-13T14:20:52.000Z,28.9
2019-03-13T14:23:07.000Z,28.7
2019-03-13T14:25:07.000Z,28.7
2019-03-13T14:26:52.000Z,28.7
2019-03-13T14:28:07.000Z,28.7
2019-03-13T14:29:07.000Z,28.7
2019-03-13T14:31:07.000Z,28.8
2019-03-13T14:33:07.000Z,28.9
2019-03-13T14:35:07.000Z,28.9
2019-03-13T14:36:07.000Z,29
2019-03-13T14:38:07.000Z,29
2019-03-13T14:39:07.000Z,29
2019-03-13T14:40:07.000Z,29.1
2019-03-13T14:41:07.000Z,29.2
2019-03-13T14:43:07.000Z,29.2
2019-03-13T14:44:07.000Z,29.2
2019-03-13T14:46:07.000Z,29.2
2019-03-13T14:47:07.000Z,29.2
2019-03-13T14:48:52.000Z,29.3
2019-03-13T14:50:07.000Z,29.2
2019-03-13T14:51:07.000Z,29.3
2019-03-13T14:53:07.000Z,29.3
2019-03-13T14:54:07.000Z,29.3
2019-03-13T14:55:52.000Z,29.3
2019-03-13T14:57:07.000Z,29.1
2019-03-13T14:58:07.000Z,29.1
2019-03-13T14:59:07.000Z,29.1
2019-03-13T15:01:07.000Z,29.2
2019-03-13T15:03:07.000Z,29.1
2019-03-13T15:04:07.000Z,29.1
2019-03-13T15:05:52.000Z,29.1
2019-03-13T15:07:07.000Z,29
2019-03-13T15:08:07.000Z,29
2019-03-13T15:09:52.000Z,29.1
2019-03-13T15:11:07.000Z,29
2019-03-13T15:13:07.000Z,29.1
2019-03-13T15:15:07.000Z,29
2019-03-13T15:16:52.000Z,29
2019-03-13T15:19:07.000Z,28.8
2019-03-13T15:20:07.000Z,28.8
2019-03-13T15:22:07.000Z,28.8
2019-03-13T15:23:07.000Z,28.9
2019-03-13T15:25:07.000Z,29
2019-03-13T15:26:07.000Z,29.1
2019-03-13T15:28:07.000Z,29.2
2019-03-13T15:29:07.000Z,29.2
2019-03-13T15:31:07.000Z,29.3
2019-03-13T15:33:07.000Z,29.5
2019-03-13T15:34:52.000Z,29.6
2019-03-13T15:36:07.000Z,29.6
2019-03-13T15:38:07.000Z,29.6
2019-03-13T15:39:07.000Z,29.6
2019-03-13T15:41:07.000Z,29.7
2019-03-13T15:43:07.000Z,29.7
2019-03-13T15:44:52.000Z,29.6
2019-03-13T15:46:07.000Z,29.5
2019-03-13T15:47:07.000Z,29.5
2019-03-13T15:49:07.000Z,29.6
2019-03-13T15:51:07.000Z,29.6
2019-03-13T15:52:52.000Z,29.6
2019-03-13T15:54:07.000Z,29.5
2019-03-13T15:55:07.000Z,29.5
2019-03-13T15:56:07.000Z,29.6
2019-03-13T15:58:07.000Z,29.6
2019-03-13T16:00:07.000Z,29.6
2019-03-13T16:02:07.000Z,29.4
2019-03-13T16:04:07.000Z,29.3
2019-03-13T16:05:07.000Z,29.3
2019-03-13T16:06:07.000Z,29.3
2019-03-13T16:08:07.000Z,29.2
2019-03-13T16:10:07.000Z,29.1
2019-03-13T16:12:07.000Z,29.1
2019-03-13T16:13:07.000Z,29.1
2019-03-13T16:15:07.000Z,29.1
2019-03-13T16:16:07.000Z,29.2
2019-03-13T16:18:07.000Z,29.2
2019-03-13T16:19:07.000Z,29.3
2019-03-13T16:20:07.000Z,29.3
2019-03-13T16:22:07.000Z,29.3
2019-03-13T16:24:07.000Z,29.2
2019-03-13T16:26:07.000Z,29.2
2019-03-13T16:28:07.000Z,29.1
2019-03-13T16:29:07.000Z,29.1
2019-03-13T16:30:07.000Z,29.2
2019-03-13T16:31:07.000Z,29.2
2019-03-13T16:33:07.000Z,29.2
2019-03-13T16:34:07.000Z,29.2
2019-03-13T16:36:07.000Z,29.2
2019-03-13T16:37:07.000Z,29.2
2019-03-13T16:39:07.000Z,29.2
2019-03-13T16:41:07.000Z,29.1
2019-03-13T16:43:07.000Z,29
2019-03-13T16:45:07.000Z,28.9
2019-03-13T16:46:07.000Z,28.9
2019-03-13T16:47:52.000Z,28.9
2019-03-13T16:49:07.000Z,28.9
2019-03-13T16:50:07.000Z,28.9
2019-03-13T16:51:07.000Z,28.9
2019-03-13T16:53:07.000Z,28.8
2019-03-13T16:54:07.000Z,28.8
2019-03-13T16:56:07.000Z,28.9
2019-03-13T16:57:07.000Z,28.9
2019-03-13T16:58:07.000Z,28.9
2019-03-13T16:59:52.000Z,28.9
2019-03-13T17:01:07.000Z,28.7
2019-03-13T17:02:07.000Z,28.7
2019-03-13T17:04:07.000Z,28.7
2019-03-13T17:06:07.000Z,28.6
2019-03-13T17:07:07.000Z,28.6
2019-03-13T17:09:07.000Z,28.6
2019-03-13T17:11:07.000Z,28.6
2019-03-13T17:12:07.000Z,28.6
2019-03-13T17:13:07.000Z,28.6
2019-03-13T17:15:07.000Z,28.6
2019-03-13T17:16:52.000Z,28.6
2019-03-13T17:18:07.000Z,28.6
2019-03-13T17:19:07.000Z,28.6
2019-03-13T17:21:07.000Z,28.6
2019-03-13T17:22:07.000Z,28.6
2019-03-13T17:23:07.000Z,28.7
2019-03-13T17:24:07.000Z,28.7
2019-03-13T17:26:07.000Z,28.6
2019-03-13T17:28:07.000Z,28.6
2019-03-13T17:29:07.000Z,28.5
2019-03-13T17:30:52.000Z,28.6
2019-03-13T17:32:07.000Z,28.5
2019-03-13T17:34:07.000Z,28.4
2019-03-13T17:36:07.000Z,28.3
2019-03-13T17:37:07.000Z,28.3
2019-03-13T17:39:07.000Z,28.4
2019-03-13T17:41:07.000Z,28.4
2019-03-13T17:43:07.000Z,28.3
2019-03-13T17:45:07.000Z,28.3
2019-03-13T17:46:07.000Z,28.3
2019-03-13T17:47:07.000Z,28.4
2019-03-13T17:48:07.000Z,28.4
2019-03-13T17:50:07.000Z,28.5
2019-03-13T17:52:07.000Z,28.4
2019-03-13T17:53:52.000Z,28.3
2019-03-13T17:55:07.000Z,28.3
2019-03-13T17:56:07.000Z,28.3
2019-03-13T17:57:07.000Z,28.3
2019-03-13T17:58:07.000Z,28.4
2019-03-13T18:00:07.000Z,28.4
2019-03-13T18:02:07.000Z,28.4
2019-03-13T18:04:07.000Z,28.4
2019-03-13T18:06:07.000Z,28.3
2019-03-13T18:07:07.000Z,28.3
2019-03-13T18:08:52.000Z,28.3
2019-03-13T18:10:08.000Z,28.3
2019-03-13T18:12:08.000Z,28.3
2019-03-13T18:14:08.000Z,28.2
2019-03-13T18:15:08.000Z,28.3
2019-03-13T18:17:08.000Z,28.3
2019-03-13T18:19:08.000Z,28.3
2019-03-13T18:20:08.000Z,28.3
2019-03-13T18:22:08.000Z,28.4
2019-03-13T18:23:08.000Z,28.4
2019-03-13T18:25:08.000Z,28.5
2019-03-13T18:26:08.000Z,28.5
2019-03-13T18:28:08.000Z,28.5
2019-03-13T18:29:08.000Z,28.5
2019-03-13T18:31:08.000Z,28.6
2019-03-13T18:32:08.000Z,28.6
2019-03-13T18:34:08.000Z,28.6
2019-03-13T18:35:08.000Z,28.6
2019-03-13T18:36:08.000Z,28.6
2019-03-13T18:38:08.000Z,28.6
2019-03-13T18:40:08.000Z,28.6
2019-03-13T18:42:08.000Z,28.5
2019-03-13T18:44:08.000Z,28.5
2019-03-13T18:46:08.000Z,28.5
2019-03-13T18:47:08.000Z,28.5
2019-03-13T18:49:08.000Z,28.5
2019-03-13T18:50:08.000Z,28.5
2019-03-13T18:52:08.000Z,28.6
2019-03-13T18:54:08.000Z,28.6
2019-03-13T18:56:08.000Z,28.6
2019-03-13T18:58:08.000Z,28.5
2019-03-13T19:00:08.000Z,28.5
2019-03-13T19:02:08.000Z,28.4
2019-03-13T19:03:53.000Z,28.3
2019-03-13T19:05:08.000Z,28.3
2019-03-13T19:07:08.000Z,28.3
2019-03-13T19:08:08.000Z,28.3
2019-03-13T19:10:08.000Z,28.2
2019-03-13T19:12:08.000Z,28.1
2019-03-13T19:14:07.000Z,28.1
2019-03-13T19:15:07.000Z,28.1
2019-03-13T19:16:07.000Z,28.2
2019-03-13T19:18:07.000Z,28.2
2019-03-13T19:19:07.000Z,28.3
2019-03-13T19:20:52.000Z,28.2
2019-03-13T19:23:07.000Z,28
2019-03-13T19:25:07.000Z,28
2019-03-13T19:26:07.000Z,28
2019-03-13T19:27:07.000Z,28.1
2019-03-13T19:29:07.000Z,28.1
2019-03-13T19:30:07.000Z,28.1
2019-03-13T19:32:07.000Z,28.1
2019-03-13T19:34:07.000Z,28.2
2019-03-13T19:36:07.000Z,28.1
2019-03-13T19:38:07.000Z,28
2019-03-13T19:39:07.000Z,28
2019-03-13T19:40:07.000Z,28
2019-03-13T19:41:52.000Z,28.2
2019-03-13T19:43:07.000Z,28.1
2019-03-13T19:45:07.000Z,28.2
2019-03-13T19:47:07.000Z,28
2019-03-13T19:49:07.000Z,27.9
2019-03-13T19:50:52.000Z,27.9
2019-03-13T19:52:07.000Z,27.8
2019-03-13T19:53:07.000Z,27.8
2019-03-13T19:54:07.000Z,27.8
2019-03-13T19:56:07.000Z,27.9
2019-03-13T19:58:07.000Z,27.9
2019-03-13T19:59:07.000Z,28
2019-03-13T20:00:07.000Z,28
2019-03-13T20:02:07.000Z,28.1
2019-03-13T20:03:54.000Z,28
2019-03-13T20:05:07.000Z,27.9
2019-03-13T20:06:07.000Z,27.9
2019-03-13T20:07:52.000Z,28
2019-03-13T20:09:07.000Z,27.9
2019-03-13T20:11:07.000Z,27.8
2019-03-13T20:13:07.000Z,27.8
2019-03-13T20:14:07.000Z,27.8
2019-03-13T20:16:07.000Z,27.9
2019-03-13T20:18:08.000Z,28
2019-03-13T20:20:08.000Z,28
2019-03-13T20:22:08.000Z,28
2019-03-13T20:24:07.000Z,28
2019-03-13T20:25:08.000Z,28
2019-03-13T20:27:08.000Z,28.1
2019-03-13T20:29:07.000Z,28
2019-03-13T20:30:08.000Z,28
2019-03-13T20:31:08.000Z,28.1
2019-03-13T20:33:08.000Z,28.1
2019-03-13T20:35:08.000Z,28.1
2019-03-13T20:36:08.000Z,28.1
2019-03-13T20:38:08.000Z,28.1
2019-03-13T20:40:07.000Z,28
2019-03-13T20:41:08.000Z,28
2019-03-13T20:42:52.000Z,28
2019-03-13T20:44:08.000Z,28
2019-03-13T20:46:08.000Z,27.9
2019-03-13T20:48:08.000Z,27.9
2019-03-13T20:49:08.000Z,27.9
2019-03-13T20:51:08.000Z,27.9
2019-03-13T20:53:07.000Z,27.8
2019-03-13T20:54:08.000Z,27.8
2019-03-13T20:56:08.000Z,27.9
2019-03-13T20:57:52.000Z,27.9